Decoded Metar for KJWG (WATONGA in OK, USA) (IATA:JWG) | Meteo·Mobile Aviation Weather
aviador You're here:

KJWG Decoded Metar

WATONGA in OK, USA
Report Time2019-08-24 13:35:00
UTC Time2019-08-24 13:53:30
Flight Rules vfr VFR
Wind100° at 08 kt
W.Decomp.*RWY 17: 1.8 kt HW 7.8 kt LCW
Visibility9999 m
Phenomena:N/A
Clouds:N/A
Expected CloudBase > 800 ft AGL from Temp-Dew spread
CeilingNone
Temp23°C (ISA +11)
Dew Point21°C (89% RH)
QNH1016 hPa
Density Alt3,068 ft
Elevation1,549 ft
Report Wrong Elevation
Raw Report
KJWG 241335Z AUTO 10008KT 10SM CLR 23/21 A3001 RMK AO2 LTG DSNT SE
T02310206=

Extra information for KJWG:More info

Metar Taf Metar & Taf Last 4 Metars F.Rules Stats Wind Profile Meteogram Temp Stats Airport Information Weather charts Add Link Nearby VenuesMetar ALERT Operation Metar Decoded Social comments

AIRNAV info for KJWG